Time;durP1;ratioP1;P1;durP2;ratioP2;P2;SDS_P1;SDS_P2;PMS_P1;PMS_P2;Temp;Humidity;BMP_temperature;BMP_pressure;BME280_temperature;BME280_humidity;BME280_pressure;Samples;Min_cycle;Max_cycle;Signal;HPM_P1;HPM_P2
2022/09/19 00:01:16;;;;;;;1.23;0.80;;;18.10;64.30;;;;;;10089771;29;20041;-57
2022/09/19 00:06:17;;;;;;;2.85;1.35;;;18.20;64.30;;;;;;10073365;29;20033;-58
2022/09/19 00:11:19;;;;;;;4.85;1.08;;;18.10;64.30;;;;;;10073464;29;20037;-57
2022/09/19 00:16:25;;;;;;;2.75;1.10;;;18.20;64.30;;;;;;10072806;29;20169;-57
2022/09/19 00:21:33;;;;;;;1.65;1.17;;;18.10;64.30;;;;;;10082288;29;20045;-57
2022/09/19 00:26:35;;;;;;;3.85;0.90;;;18.20;64.30;;;;;;10071910;29;20067;-57
2022/09/19 00:31:36;;;;;;;2.83;0.98;;;18.10;64.30;;;;;;10069576;29;20036;-57
2022/09/19 00:36:38;;;;;;;2.03;0.88;;;18.10;64.30;;;;;;10072148;29;20029;-57
2022/09/19 00:41:40;;;;;;;2.20;0.75;;;18.10;64.40;;;;;;10071522;29;20037;-57
2022/09/19 00:46:40;;;;;;;2.95;1.45;;;18.10;64.60;;;;;;10072053;29;20044;-57
2022/09/19 00:51:49;;;;;;;3.40;1.50;;;18.10;64.50;;;;;;10088400;29;20116;-57
2022/09/19 00:56:53;;;;;;;1.40;1.00;;;18.10;64.50;;;;;;10072023;29;20121;-56
2022/09/19 01:01:55;;;;;;;2.63;1.15;;;18.00;64.40;;;;;;10071481;29;20049;-57
2022/09/19 01:07:26;;;;;;;2.40;0.70;;;18.10;64.40;;;;;;10071951;29;20026;-57
2022/09/19 01:12:59;;;;;;;3.53;1.00;;;18.00;64.30;;;;;;10071318;29;20041;-57
2022/09/19 01:18:01;;;;;;;2.50;0.70;;;18.10;64.30;;;;;;10081913;29;20036;-57
2022/09/19 01:23:12;;;;;;;1.90;0.68;;;18.10;64.40;;;;;;10086151;29;20063;-58
2022/09/19 01:28:34;;;;;;;2.70;1.13;;;18.00;64.30;;;;;;10087471;29;20029;-57
2022/09/19 01:33:38;;;;;;;2.85;1.05;;;18.00;64.30;;;;;;10071191;29;20092;-57
2022/09/19 01:38:39;;;;;;;1.98;0.70;;;18.00;64.30;;;;;;10070597;29;20029;-57
2022/09/19 01:43:40;;;;;;;2.05;1.08;;;18.00;64.20;;;;;;10070312;29;20767;-57
2022/09/19 01:49:06;;;;;;;2.75;0.70;;;18.00;64.30;;;;;;10085523;29;20112;-56
2022/09/19 01:55:08;;;;;;;3.03;0.98;;;18.00;64.30;;;;;;10086851;29;20052;-57
2022/09/19 02:00:15;;;;;;;1.90;0.45;;;18.00;64.20;;;;;;9972326;29;20112;-57
2022/09/19 02:05:52;;;;;;;2.05;0.70;;;18.00;64.30;;;;;;10070123;29;20047;-58
2022/09/19 02:11:19;;;;;;;2.88;0.75;;;18.00;64.30;;;;;;10086536;29;20045;-58
2022/09/19 02:16:47;;;;;;;0.90;0.50;;;18.00;64.30;;;;;;10072380;29;20030;-57
2022/09/19 02:21:55;;;;;;;3.63;1.02;;;18.00;64.50;;;;;;10072983;29;20049;-57
2022/09/19 02:27:09;;;;;;;1.73;0.90;;;18.00;64.60;;;;;;10093696;29;20060;-57
2022/09/19 02:32:11;;;;;;;2.38;0.60;;;18.00;64.60;;;;;;10077935;29;20029;-57
2022/09/19 02:37:34;;;;;;;3.05;1.05;;;17.90;64.50;;;;;;10076631;29;20036;-57
2022/09/19 02:42:58;;;;;;;2.33;0.75;;;17.90;64.50;;;;;;10082074;29;20045;-57
2022/09/19 02:48:18;;;;;;;2.13;0.60;;;17.90;64.40;;;;;;10076948;29;20136;-57
2022/09/19 02:53:28;;;;;;;3.47;0.82;;;17.90;64.30;;;;;;10076746;29;20102;-57
2022/09/19 02:58:45;;;;;;;2.05;1.00;;;17.90;64.30;;;;;;10076714;29;20049;-56
2022/09/19 03:09:18;;;;;;;1.13;0.70;;;17.90;64.40;;;;;;10079695;29;20036;-58
2022/09/19 03:14:19;;;;;;;1.98;0.77;;;17.90;64.30;;;;;;10075886;29;20735;-57
2022/09/19 03:19:22;;;;;;;1.85;0.60;;;17.90;64.30;;;;;;10084603;29;20115;-58
2022/09/19 03:24:23;;;;;;;2.83;0.77;;;17.90;64.30;;;;;;10075256;29;20599;-57
2022/09/19 03:29:23;;;;;;;2.42;0.65;;;17.90;64.30;;;;;;10075017;29;20053;-62
2022/09/19 03:34:24;;;;;;;1.38;0.80;;;17.90;64.30;;;;;;10074349;29;20389;-57
2022/09/19 03:39:25;;;;;;;1.77;0.80;;;17.90;64.30;;;;;;10074459;29;20041;-57
2022/09/19 03:44:25;;;;;;;4.53;1.00;;;17.90;64.30;;;;;;10089875;29;20061;-57
2022/09/19 03:49:27;;;;;;;5.00;1.05;;;17.90;64.30;;;;;;10091033;29;20057;-57
2022/09/19 03:54:28;;;;;;;4.80;1.05;;;17.90;64.30;;;;;;10090799;29;20037;-57
2022/09/19 03:59:29;;;;;;;6.03;2.67;;;17.80;64.50;;;;;;10090704;29;20097;-57
2022/09/19 04:04:30;;;;;;;4.15;2.17;;;17.90;64.80;;;;;;10090148;29;20533;-57
2022/09/19 04:09:31;;;;;;;2.70;1.50;;;17.90;64.90;;;;;;10073206;29;20077;-58
2022/09/19 04:14:32;;;;;;;3.67;1.35;;;17.80;64.90;;;;;;10072716;29;20085;-57
2022/09/19 04:19:33;;;;;;;5.53;2.63;;;17.90;65.70;;;;;;10082496;29;20029;-57
2022/09/19 04:24:34;;;;;;;4.07;3.67;;;17.90;65.30;;;;;;10089338;29;20041;-57
2022/09/19 04:29:35;;;;;;;10.00;8.75;;;17.90;65.40;;;;;;10072347;29;20101;-57
2022/09/19 04:34:36;;;;;;;15.55;14.27;;;17.90;65.80;;;;;;10089135;29;20044;-56
2022/09/19 04:39:37;;;;;;;23.38;21.40;;;17.90;65.90;;;;;;10084622;29;20037;-57
2022/09/19 04:44:39;;;;;;;21.20;19.50;;;17.90;66.10;;;;;;10087607;29;20071;-56
2022/09/19 04:49:39;;;;;;;17.10;15.70;;;17.90;66.30;;;;;;10088612;29;20136;-57
2022/09/19 04:54:41;;;;;;;15.48;14.07;;;17.90;66.20;;;;;;10089563;29;20199;-57
2022/09/19 04:59:42;;;;;;;13.98;12.25;;;17.90;66.50;;;;;;10091907;29;20517;-56
2022/09/19 05:04:45;;;;;;;17.23;13.20;;;18.00;66.30;;;;;;10087789;29;20044;-56
2022/09/19 05:09:46;;;;;;;15.07;13.68;;;18.10;66.60;;;;;;10070838;29;20699;-57
2022/09/19 05:14:46;;;;;;;13.02;11.35;;;18.00;66.40;;;;;;10083958;29;20043;-58
2022/09/19 05:19:47;;;;;;;12.40;11.25;;;18.00;66.60;;;;;;10095089;29;20630;-59
2022/09/19 05:24:48;;;;;;;14.10;12.25;;;18.20;66.70;;;;;;10084037;29;20494;-57
2022/09/19 05:29:49;;;;;;;15.30;12.18;;;18.20;66.30;;;;;;10068033;29;20116;-58
2022/09/19 05:34:50;;;;;;;20.27;11.65;;;18.20;67.30;;;;;;10083889;29;20384;-58
2022/09/19 05:39:51;;;;;;;15.45;10.50;;;18.20;67.20;;;;;;10069242;29;20055;-55
2022/09/19 05:44:54;;;;;;;21.95;10.80;;;18.20;67.00;;;;;;10087057;29;20462;-56
2022/09/19 05:49:55;;;;;;;14.50;10.18;;;18.20;67.00;;;;;;10084972;29;20033;-53
2022/09/19 05:54:55;;;;;;;28.65;10.57;;;18.20;66.90;;;;;;10084452;29;20132;-53
2022/09/19 05:59:56;;;;;;;34.35;12.48;;;18.10;67.00;;;;;;10099131;29;20072;-57
2022/09/19 06:04:57;;;;;;;33.35;13.73;;;18.10;66.90;;;;;;10093266;29;20076;-58
2022/09/19 06:09:58;;;;;;;32.20;10.98;;;18.00;67.00;;;;;;10074047;29;20120;-58
2022/09/19 06:15:00;;;;;;;24.75;11.10;;;18.00;67.40;;;;;;10056947;29;20033;-58
2022/09/19 06:20:01;;;;;;;25.65;8.88;;;18.00;67.30;;;;;;10099611;29;20363;-57
2022/09/19 06:25:03;;;;;;;26.83;8.30;;;18.00;67.30;;;;;;10072448;29;20065;-58
2022/09/19 06:30:05;;;;;;;15.93;7.30;;;17.90;67.10;;;;;;10089039;29;20182;-57
2022/09/19 06:35:06;;;;;;;16.13;7.63;;;17.90;67.10;;;;;;10089203;29;20115;-58
2022/09/19 06:40:08;;;;;;;17.95;7.53;;;17.90;67.00;;;;;;10076167;29;20071;-57
2022/09/19 06:45:09;;;;;;;15.40;7.10;;;17.90;66.90;;;;;;10092628;29;20041;-57
2022/09/19 06:50:13;;;;;;;16.70;6.38;;;17.90;66.90;;;;;;10093200;29;20061;-57
2022/09/19 06:55:14;;;;;;;14.90;6.20;;;17.90;66.90;;;;;;10092482;29;20101;-57
2022/09/19 07:00:15;;;;;;;14.13;5.30;;;17.90;66.80;;;;;;10092640;29;20362;-56
2022/09/19 07:05:15;;;;;;;28.77;7.22;;;17.90;66.80;;;;;;10094787;29;20040;-57
2022/09/19 07:10:18;;;;;;;11.38;5.57;;;17.80;66.60;;;;;;10090427;29;20100;-57
2022/09/19 07:15:20;;;;;;;11.82;5.07;;;17.80;67.00;;;;;;10075359;29;20025;-57
2022/09/19 07:20:21;;;;;;;13.52;5.22;;;17.90;67.00;;;;;;10084182;29;20093;-57
2022/09/19 07:25:21;;;;;;;11.85;4.88;;;17.80;67.10;;;;;;10091319;29;20135;-57
2022/09/19 07:30:22;;;;;;;8.30;4.03;;;17.90;67.10;;;;;;10091836;29;20029;-57
2022/09/19 07:35:26;;;;;;;8.55;4.38;;;17.90;67.30;;;;;;10074754;29;20041;-57
2022/09/19 07:40:27;;;;;;;10.82;3.85;;;17.90;67.30;;;;;;10074426;29;20033;-57
2022/09/19 07:45:29;;;;;;;9.73;3.30;;;17.80;67.20;;;;;;10091137;29;20093;-57
2022/09/19 07:50:30;;;;;;;7.90;3.30;;;17.90;67.50;;;;;;10090583;29;20029;-57
2022/09/19 07:55:32;;;;;;;11.63;3.45;;;17.90;67.50;;;;;;10070616;29;20116;-57
2022/09/19 08:00:34;;;;;;;19.63;3.47;;;17.90;67.30;;;;;;10088646;29;20120;-57
2022/09/19 08:05:41;;;;;;;16.75;3.58;;;17.90;67.30;;;;;;10070160;29;20109;-58
2022/09/19 08:10:43;;;;;;;12.05;3.10;;;18.00;67.20;;;;;;10088674;29;20486;-57
2022/09/19 08:15:45;;;;;;;11.70;3.28;;;17.90;67.00;;;;;;10087454;29;20567;-57
2022/09/19 08:20:48;;;;;;;11.35;2.90;;;17.90;67.00;;;;;;10096019;29;20048;-56
2022/09/19 08:25:51;;;;;;;8.80;2.60;;;17.90;67.00;;;;;;10088143;29;20036;-56
2022/09/19 08:30:52;;;;;;;5.57;2.05;;;17.90;66.90;;;;;;10087145;29;20025;-57
2022/09/19 08:35:53;;;;;;;9.60;2.78;;;17.90;66.90;;;;;;10046031;29;20394;-57
2022/09/19 08:41:19;;;;;;;9.80;2.53;;;17.90;66.80;;;;;;10086526;29;20044;-57
2022/09/19 08:46:33;;;;;;;12.85;2.55;;;18.00;66.80;;;;;;10070622;29;20059;-56
2022/09/19 08:52:13;;;;;;;6.93;2.53;;;18.00;66.80;;;;;;10087046;29;20089;-57
2022/09/19 08:57:32;;;;;;;7.57;2.45;;;17.90;66.90;;;;;;10082820;29;20177;-58
2022/09/19 09:02:42;;;;;;;5.85;1.92;;;17.90;67.00;;;;;;10072743;29;20774;-57
2022/09/19 09:08:17;;;;;;;5.57;1.60;;;17.90;67.20;;;;;;10087961;29;20057;-56
2022/09/19 09:13:48;;;;;;;6.30;1.42;;;17.90;67.00;;;;;;10025049;29;20509;-59
2022/09/19 09:19:23;;;;;;;4.78;1.70;;;18.00;67.30;;;;;;10081519;29;20089;-57
2022/09/19 09:24:33;;;;;;;4.18;1.50;;;18.00;67.30;;;;;;10071923;29;20041;-57
2022/09/19 09:29:39;;;;;;;5.28;1.33;;;18.10;67.20;;;;;;10069232;29;20057;-57
2022/09/19 09:34:50;;;;;;;6.32;1.67;;;18.00;67.20;;;;;;10068073;29;20043;-58
2022/09/19 09:40:13;;;;;;;8.70;1.65;;;18.00;67.20;;;;;;10069057;29;20033;-57
2022/09/19 09:45:42;;;;;;;4.85;1.45;;;18.00;67.20;;;;;;10080535;29;20616;-57
2022/09/19 09:51:09;;;;;;;3.05;0.98;;;18.10;67.30;;;;;;10069970;29;20555;-56
2022/09/19 09:56:21;;;;;;;6.05;1.15;;;18.10;67.20;;;;;;10086600;29;20498;-57
2022/09/19 10:07:50;;;;;;;9.05;1.75;;;18.00;67.20;;;;;;10087075;29;20021;-57
2022/09/19 10:13:14;;;;;;;54.53;9.55;;;18.10;67.20;;;;;;10072373;29;20048;-58
2022/09/19 10:18:16;;;;;;;61.38;11.80;;;18.10;66.90;;;;;;10081400;29;20414;-57
2022/09/19 10:23:24;;;;;;;69.22;16.70;;;18.10;66.90;;;;;;10086505;29;20041;-57
2022/09/19 10:28:40;;;;;;;72.32;14.82;;;18.00;67.00;;;;;;10086334;29;20021;-57
2022/09/19 10:33:45;;;;;;;80.32;16.80;;;18.10;67.30;;;;;;10069769;29;20033;-57
2022/09/19 10:38:58;;;;;;;75.60;16.00;;;18.00;67.00;;;;;;10086246;29;20610;-56
2022/09/19 10:44:06;;;;;;;59.67;14.70;;;18.00;67.10;;;;;;10088657;29;20056;-57
2022/09/19 10:49:20;;;;;;;78.57;14.77;;;18.00;66.60;;;;;;10075852;29;20028;-58
2022/09/19 10:54:41;;;;;;;63.17;14.45;;;18.00;67.00;;;;;;10076862;29;20094;-59
2022/09/19 10:59:41;;;;;;;52.33;12.48;;;18.00;67.10;;;;;;10077218;29;20091;-57
2022/09/19 11:05:03;;;;;;;56.25;10.93;;;18.00;67.10;;;;;;10075301;29;20133;-58
2022/09/19 11:10:37;;;;;;;54.15;11.52;;;18.10;68.70;;;;;;10091229;29;20082;-56
2022/09/19 11:16:08;;;;;;;51.25;9.55;;;18.10;68.40;;;;;;10086568;29;20120;-56
2022/09/19 11:21:32;;;;;;;43.03;10.50;;;18.10;68.50;;;;;;10100628;29;20643;-57
2022/09/19 11:27:02;;;;;;;60.58;11.68;;;18.10;67.70;;;;;;10074255;29;20108;-59
2022/09/19 11:32:34;;;;;;;55.55;10.95;;;18.10;67.80;;;;;;10088185;29;20568;-58
2022/09/19 11:38:15;;;;;;;57.58;15.30;;;18.20;67.70;;;;;;10089674;29;20973;-59
2022/09/19 11:43:49;;;;;;;;;;;18.20;67.60;;;;;;10076072;29;20049;-57
2022/09/19 11:49:23;;;;;;;43.30;10.63;;;18.30;67.60;;;;;;10089012;29;19904;-59
2022/09/19 11:55:09;;;;;;;35.50;9.43;;;18.30;67.60;;;;;;10088177;29;20068;-57
2022/09/19 12:00:18;;;;;;;39.78;9.88;;;18.30;68.20;;;;;;10088977;29;20037;-58
2022/09/19 12:05:46;;;;;;;36.78;9.27;;;18.40;67.60;;;;;;10071716;29;20159;-58
2022/09/19 12:11:09;;;;;;;34.15;8.45;;;18.40;67.50;;;;;;10086524;29;20088;-58
2022/09/19 12:16:21;;;;;;;39.90;8.55;;;18.50;67.30;;;;;;10073772;29;20033;-58
2022/09/19 12:21:27;;;;;;;27.98;7.50;;;18.50;67.10;;;;;;10065786;29;20048;-57
2022/09/19 12:26:47;;;;;;;22.55;7.60;;;18.40;67.20;;;;;;10070407;29;20967;-57
2022/09/19 12:32:01;;;;;;;31.40;8.20;;;18.30;67.20;;;;;;10074667;29;20116;-57
2022/09/19 12:37:15;;;;;;;73.10;12.02;;;18.30;68.50;;;;;;10073246;29;20097;-57
2022/09/19 12:42:39;;;;;;;64.95;13.23;;;18.40;68.50;;;;;;10072831;29;20041;-58
2022/09/19 12:48:22;;;;;;;57.90;11.75;;;18.40;68.70;;;;;;10073867;29;20025;-57
2022/09/19 12:53:49;;;;;;;39.70;9.45;;;18.40;68.30;;;;;;10087696;29;20093;-57
2022/09/19 12:59:05;;;;;;;45.03;8.02;;;18.40;68.10;;;;;;10086908;29;20070;-56
2022/09/19 13:04:25;;;;;;;34.05;7.57;;;18.40;68.40;;;;;;10069897;29;20395;-57
2022/09/19 13:09:47;;;;;;;26.15;4.68;;;18.40;67.80;;;;;;10069307;29;20081;-55
2022/09/19 13:15:02;;;;;;;18.42;5.03;;;18.50;67.00;;;;;;10083882;29;20048;-58
2022/09/19 13:25:39;;;;;;;29.70;5.32;;;18.40;66.50;;;;;;10071772;29;20045;-57
2022/09/19 13:30:49;;;;;;;57.05;7.78;;;18.40;66.20;;;;;;10085098;29;20029;-58
2022/09/19 13:35:53;;;;;;;41.42;5.40;;;18.40;66.00;;;;;;10084809;29;20495;-56
2022/09/19 13:41:13;;;;;;;39.08;5.28;;;18.40;66.30;;;;;;10081108;29;20580;-58
2022/09/19 13:46:33;;;;;;;28.15;4.95;;;18.40;66.60;;;;;;10083656;29;20080;-58
2022/09/19 13:51:42;;;;;;;;;;;18.40;66.80;;;;;;10070746;29;20119;-57
2022/09/19 13:56:48;;;;;;;26.65;6.05;;;18.40;66.90;;;;;;10068113;29;19966;-57
2022/09/19 14:02:15;;;;;;;41.80;6.30;;;18.40;67.20;;;;;;10068584;29;20132;-54
2022/09/19 14:07:21;;;;;;;34.70;5.53;;;18.50;67.30;;;;;;10084332;29;20378;-57
2022/09/19 14:12:37;;;;;;;34.10;6.00;;;18.40;67.60;;;;;;10067887;29;20124;-57
2022/09/19 14:17:39;;;;;;;27.27;5.43;;;18.50;67.50;;;;;;10093505;29;20033;-57
2022/09/19 14:22:44;;;;;;;37.35;6.60;;;18.40;68.00;;;;;;10093418;29;20494;-57
2022/09/19 14:27:47;;;;;;;38.85;7.35;;;18.40;67.90;;;;;;10091961;29;20065;-57
2022/09/19 14:33:30;;;;;;;28.60;6.00;;;18.40;67.80;;;;;;10092149;29;20060;-57
2022/09/19 14:39:00;;;;;;;33.85;5.35;;;18.40;67.90;;;;;;10091664;29;20033;-56
2022/09/19 14:44:58;;;;;;;21.52;4.18;;;18.40;68.10;;;;;;10091132;29;20404;-56
2022/09/19 14:50:44;;;;;;;27.80;5.30;;;18.40;68.10;;;;;;10091133;29;20033;-56
2022/09/19 14:56:13;;;;;;;45.15;5.97;;;18.50;68.30;;;;;;10066767;29;20489;-56
2022/09/19 15:01:25;;;;;;;66.00;7.53;;;18.50;68.30;;;;;;10072670;29;20048;-55
2022/09/19 15:06:41;;;;;;;31.05;5.55;;;18.50;68.10;;;;;;10079582;29;20022;-56
2022/09/19 15:11:55;;;;;;;25.50;5.75;;;18.50;68.20;;;;;;10085851;29;20037;-57
2022/09/19 15:17:11;;;;;;;21.42;4.82;;;18.50;68.30;;;;;;10089767;29;20123;-56
2022/09/19 15:22:27;;;;;;;40.30;5.22;;;18.50;68.50;;;;;;10086006;29;20076;-55
2022/09/19 15:27:33;;;;;;;18.02;3.83;;;18.40;68.60;;;;;;10089283;29;20029;-55
2022/09/19 15:32:34;;;;;;;22.02;3.97;;;18.40;68.80;;;;;;10088480;29;20048;-55
2022/09/19 15:37:39;;;;;;;28.10;5.93;;;18.50;68.80;;;;;;10067240;29;20377;-56
2022/09/19 15:42:43;;;;;;;20.08;5.65;;;18.50;68.90;;;;;;10072183;29;20037;-56
2022/09/19 15:47:45;;;;;;;18.38;6.35;;;18.40;68.70;;;;;;10090244;29;20124;-56
2022/09/19 15:52:46;;;;;;;28.00;6.63;;;18.40;68.90;;;;;;10066476;29;20037;-56
2022/09/19 15:57:50;;;;;;;24.25;5.40;;;18.40;69.00;;;;;;10066598;29;20049;-55
2022/09/19 16:03:02;;;;;;;20.65;6.22;;;18.40;69.20;;;;;;10080876;29;20053;-56
2022/09/19 16:13:48;;;;;;;22.73;4.28;;;18.40;68.80;;;;;;10089106;29;20049;-54
2022/09/19 16:18:49;;;;;;;25.25;4.18;;;18.40;68.40;;;;;;10081527;29;20040;-55
2022/09/19 16:23:51;;;;;;;11.57;2.67;;;18.50;71.40;;;;;;10084387;29;20047;-55
2022/09/19 16:28:54;;;;;;;9.98;2.60;;;18.60;71.00;;;;;;10089295;29;20373;-55
2022/09/19 16:34:02;;;;;;;11.13;2.75;;;18.70;71.60;;;;;;10089242;29;20574;-55
2022/09/19 16:39:09;;;;;;;10.30;2.63;;;18.80;71.70;;;;;;10087473;29;20033;-56
2022/09/19 16:44:30;;;;;;;17.00;3.67;;;18.80;71.00;;;;;;10088135;29;20115;-54
2022/09/19 16:49:30;;;;;;;21.75;3.85;;;18.80;71.00;;;;;;10088295;29;20040;-54
2022/09/19 16:54:32;;;;;;;15.93;2.70;;;18.80;70.70;;;;;;10082259;29;20528;-55
2022/09/19 16:59:40;;;;;;;12.95;2.45;;;18.80;70.40;;;;;;10082167;29;20052;-55
2022/09/19 17:04:41;;;;;;;11.82;2.80;;;18.70;70.30;;;;;;10070772;29;20099;-55
2022/09/19 17:09:41;;;;;;;22.20;4.20;;;18.70;70.50;;;;;;10069946;29;20064;-54
2022/09/19 17:14:43;;;;;;;18.08;3.80;;;18.60;70.10;;;;;;10089394;29;20469;-55
2022/09/19 17:19:45;;;;;;;28.33;4.68;;;18.60;70.30;;;;;;10080008;29;20041;-55
2022/09/19 17:24:46;;;;;;;27.65;3.67;;;18.60;70.20;;;;;;10069736;29;20057;-53
2022/09/19 17:29:47;;;;;;;16.05;3.83;;;18.50;70.10;;;;;;10067905;29;20052;-55
2022/09/19 17:34:47;;;;;;;35.70;5.10;;;18.50;70.20;;;;;;10073428;29;20041;-54
2022/09/19 17:39:48;;;;;;;23.70;4.30;;;18.50;70.10;;;;;;10071968;29;20143;-55
2022/09/19 17:44:49;;;;;;;27.13;4.55;;;18.50;70.20;;;;;;10069580;29;20514;-54
2022/09/19 17:49:50;;;;;;;13.60;3.28;;;18.50;70.20;;;;;;10082709;29;20041;-54
2022/09/19 17:54:50;;;;;;;17.40;4.53;;;18.50;70.40;;;;;;10074086;29;20089;-55
2022/09/19 17:59:51;;;;;;;14.50;3.17;;;18.50;70.30;;;;;;10084955;29;20112;-55
2022/09/19 18:04:52;;;;;;;19.17;3.10;;;18.50;70.20;;;;;;10086323;29;20562;-55
2022/09/19 18:09:52;;;;;;;11.07;2.20;;;18.40;70.00;;;;;;10084343;29;20071;-56
2022/09/19 18:14:53;;;;;;;12.68;2.10;;;18.50;70.20;;;;;;10069034;29;20576;-56
2022/09/19 18:19:53;;;;;;;15.35;3.22;;;18.50;70.20;;;;;;10082924;29;20120;-55
2022/09/19 18:24:56;;;;;;;11.48;2.53;;;18.50;70.10;;;;;;10080888;29;20145;-56
2022/09/19 18:29:57;;;;;;;12.77;2.78;;;18.50;70.20;;;;;;10067947;29;20393;-56
2022/09/19 18:35:00;;;;;;;11.55;2.92;;;18.50;70.30;;;;;;10081651;29;20133;-55
2022/09/19 18:40:01;;;;;;;13.00;3.83;;;18.50;70.30;;;;;;10082122;29;20646;-55
2022/09/19 18:45:05;;;;;;;12.52;2.50;;;18.50;70.20;;;;;;10085504;29;20455;-56
2022/09/19 18:50:10;;;;;;;7.95;2.25;;;18.50;70.20;;;;;;10084488;29;20533;-55
2022/09/19 18:55:10;;;;;;;12.68;2.15;;;18.50;70.20;;;;;;10083692;29;20393;-55
2022/09/19 19:00:11;;;;;;;7.38;1.77;;;18.50;70.30;;;;;;10068132;29;20140;-55
2022/09/19 19:05:12;;;;;;;10.40;3.97;;;18.50;70.10;;;;;;10081742;29;20046;-56
2022/09/19 19:10:13;;;;;;;8.80;2.35;;;18.50;70.10;;;;;;10073818;29;20120;-56
2022/09/19 19:15:16;;;;;;;11.07;2.13;;;18.50;70.00;;;;;;10095846;29;20040;-56
2022/09/19 19:20:19;;;;;;;7.10;2.22;;;18.50;69.80;;;;;;10090919;29;20029;-54
2022/09/19 19:25:19;;;;;;;9.40;2.25;;;18.50;69.80;;;;;;10088900;29;20057;-54
2022/09/19 19:30:20;;;;;;;8.88;3.80;;;18.50;69.60;;;;;;10088720;29;20101;-55
2022/09/19 19:35:21;;;;;;;6.40;1.88;;;18.40;69.50;;;;;;10089295;29;20116;-56
2022/09/19 19:40:22;;;;;;;5.60;1.50;;;18.40;69.50;;;;;;10089204;29;20451;-54
2022/09/19 19:45:22;;;;;;;6.20;1.48;;;18.30;69.30;;;;;;10090835;29;20112;-56
2022/09/19 19:50:23;;;;;;;7.75;2.17;;;18.30;69.30;;;;;;10090337;29;20064;-56
2022/09/19 19:55:23;;;;;;;4.25;1.95;;;18.30;69.20;;;;;;10090017;29;20061;-55
2022/09/19 20:00:24;;;;;;;6.85;1.80;;;18.30;69.10;;;;;;10084886;29;20033;-55
2022/09/19 20:05:25;;;;;;;5.70;1.50;;;18.30;69.20;;;;;;10073098;29;20048;-55
2022/09/19 20:10:26;;;;;;;5.90;2.10;;;18.30;69.10;;;;;;10089113;29;20691;-55
2022/09/19 20:15:26;;;;;;;3.53;1.58;;;18.30;69.00;;;;;;10089934;29;20048;-55
2022/09/19 20:20:27;;;;;;;4.40;1.48;;;18.30;68.90;;;;;;10097740;29;20064;-55
2022/09/19 20:25:28;;;;;;;4.57;1.45;;;18.30;68.90;;;;;;10089898;29;20132;-56
2022/09/19 20:30:28;;;;;;;4.95;1.65;;;18.30;68.80;;;;;;10089349;29;20116;-55
2022/09/19 20:35:30;;;;;;;5.60;1.85;;;18.30;68.70;;;;;;10072809;29;20452;-56
2022/09/19 20:40:32;;;;;;;6.90;1.35;;;18.20;68.60;;;;;;10087644;29;20033;-54
2022/09/19 20:45:33;;;;;;;6.13;2.10;;;18.30;68.60;;;;;;10072651;29;20049;-56
2022/09/19 20:50:34;;;;;;;7.32;1.80;;;18.20;68.50;;;;;;10088358;29;20029;-56
2022/09/19 20:55:34;;;;;;;3.13;1.20;;;18.20;68.50;;;;;;10088093;29;20116;-56
2022/09/19 21:00:35;;;;;;;6.47;2.50;;;18.20;68.40;;;;;;10071922;29;20037;-56
2022/09/19 21:05:37;;;;;;;5.90;1.30;;;18.20;68.30;;;;;;10087995;29;20076;-56
2022/09/19 21:10:39;;;;;;;4.15;1.10;;;18.20;68.30;;;;;;10088343;29;20032;-56
2022/09/19 21:15:39;;;;;;;3.10;1.20;;;18.20;68.30;;;;;;10087612;29;20036;-57
2022/09/19 21:20:40;;;;;;;5.15;1.50;;;18.20;68.30;;;;;;10097870;29;20037;-56
2022/09/19 21:25:41;;;;;;;3.80;1.30;;;18.20;68.20;;;;;;10086969;29;20150;-56
2022/09/19 21:30:48;;;;;;;4.75;1.10;;;18.20;68.10;;;;;;10087303;29;20497;-56
2022/09/19 21:35:50;;;;;;;6.43;1.40;;;18.20;68.10;;;;;;10070318;29;20041;-55
2022/09/19 21:41:01;;;;;;;5.13;1.48;;;18.20;68.00;;;;;;10070649;29;20494;-56
2022/09/19 21:46:17;;;;;;;2.78;1.38;;;18.20;68.10;;;;;;10070616;29;20041;-56
2022/09/19 21:51:25;;;;;;;3.45;1.27;;;18.20;67.90;;;;;;10071001;29;20104;-56
2022/09/19 21:56:28;;;;;;;2.75;1.10;;;18.20;67.90;;;;;;10070125;29;20049;-56
2022/09/19 22:01:32;;;;;;;2.83;1.50;;;18.20;67.90;;;;;;10070364;29;20037;-56
2022/09/19 22:06:33;;;;;;;2.33;0.95;;;18.10;67.80;;;;;;10086124;29;20786;-56
2022/09/19 22:11:35;;;;;;;3.88;1.33;;;18.10;67.80;;;;;;10054390;29;20125;-56
2022/09/19 22:16:36;;;;;;;3.13;1.25;;;18.10;67.70;;;;;;10069483;29;20033;-56
2022/09/19 22:21:38;;;;;;;2.67;1.00;;;18.10;67.70;;;;;;10079251;29;20052;-55
2022/09/19 22:26:41;;;;;;;3.83;1.25;;;18.20;67.70;;;;;;10084120;29;20029;-55
2022/09/19 22:31:42;;;;;;;3.28;1.10;;;18.10;67.70;;;;;;10069958;29;20037;-57
2022/09/19 22:36:42;;;;;;;2.25;0.80;;;18.10;67.60;;;;;;10085658;29;20041;-55
2022/09/19 22:41:43;;;;;;;5.13;1.20;;;18.10;67.60;;;;;;10093017;29;20038;-54
2022/09/19 22:46:43;;;;;;;3.83;1.15;;;18.10;67.60;;;;;;10076463;29;20112;-56
2022/09/19 22:51:44;;;;;;;3.10;1.08;;;18.10;67.60;;;;;;10093340;29;20074;-56
2022/09/19 22:56:45;;;;;;;3.53;1.42;;;18.10;67.50;;;;;;10092765;29;20758;-56
2022/09/19 23:01:46;;;;;;;2.60;1.10;;;18.10;67.50;;;;;;10092822;29;20479;-56
2022/09/19 23:06:47;;;;;;;2.80;0.90;;;18.10;67.40;;;;;;10092614;29;20543;-56
2022/09/19 23:11:48;;;;;;;2.38;1.08;;;18.10;67.40;;;;;;10092443;29;20127;-55
2022/09/19 23:16:50;;;;;;;3.08;1.13;;;18.10;67.40;;;;;;10076202;29;20041;-56
2022/09/19 23:21:56;;;;;;;4.38;1.75;;;18.10;67.30;;;;;;10098105;29;20493;-55
2022/09/19 23:26:59;;;;;;;2.45;1.13;;;18.10;67.30;;;;;;10072601;29;20056;-56
2022/09/19 23:32:00;;;;;;;2.17;0.93;;;18.10;67.30;;;;;;10091740;29;20068;-55
2022/09/19 23:37:01;;;;;;;1.95;0.82;;;18.10;67.30;;;;;;10074588;29;20033;-56
2022/09/19 23:42:02;;;;;;;1.77;0.80;;;18.10;67.30;;;;;;10091422;29;20053;-56
2022/09/19 23:47:02;;;;;;;1.90;0.93;;;18.10;67.20;;;;;;10090922;29;20140;-56
2022/09/19 23:52:03;;;;;;;3.42;0.90;;;18.10;67.20;;;;;;10074189;29;20037;-55
2022/09/19 23:57:04;;;;;;;1.90;0.90;;;18.00;67.20;;;;;;10090524;29;20157;-55
